createdAt,value
2022-10-29T00:02:11.063Z,26.23
2022-10-29T00:07:13.200Z,30.27
2022-10-29T00:12:13.968Z,25.85
2022-10-29T00:17:15.891Z,29.10
2022-10-29T00:22:18.072Z,29.20
2022-10-29T00:27:18.837Z,29.10
2022-10-29T00:32:19.781Z,31.23
2022-10-29T00:37:21.956Z,32.40
2022-10-29T00:42:22.724Z,26.25
2022-10-29T00:47:27.366Z,27.63
2022-10-29T00:52:33.273Z,27.20
2022-10-29T00:57:40.512Z,33.95
2022-10-29T01:02:42.214Z,24.63
2022-10-29T01:07:44.476Z,35.20
2022-10-29T01:13:09.976Z,27.92
2022-10-29T01:18:18.299Z,26.83
2022-10-29T01:24:06.293Z,25.13
2022-10-29T01:29:21.271Z,28.83
2022-10-29T01:34:29.957Z,35.22
2022-10-29T01:39:38.787Z,30.02
2022-10-29T01:44:46.506Z,29.83
2022-10-29T01:49:52.563Z,27.95
2022-10-29T01:54:53.305Z,31.35
2022-10-29T01:59:56.342Z,28.98
2022-10-29T02:05:12.360Z,27.13
2022-10-29T02:10:20.421Z,30.23
2022-10-29T02:15:26.426Z,32.28
2022-10-29T02:20:28.677Z,28.95
2022-10-29T02:25:29.534Z,26.92
2022-10-29T02:30:33.096Z,30.92
2022-10-29T02:35:35.244Z,28.95
2022-10-29T02:40:36.024Z,27.70
2022-10-29T02:45:36.826Z,28.30
2022-10-29T02:50:38.942Z,29.73
2022-10-29T02:55:39.726Z,28.55
2022-10-29T03:00:40.533Z,28.25
2022-10-29T03:05:46.570Z,27.83
2022-10-29T03:10:49.867Z,30.65
2022-10-29T03:15:50.645Z,34.40
2022-10-29T03:20:52.945Z,28.88
2022-10-29T03:25:56.034Z,32.13
2022-10-29T03:30:57.808Z,31.90
2022-10-29T03:36:02.151Z,27.77
2022-10-29T03:41:08.513Z,38.03
2022-10-29T03:46:09.436Z,30.85
2022-10-29T03:51:11.997Z,34.17
2022-10-29T03:56:12.809Z,33.95
2022-10-29T04:01:13.648Z,38.25
2022-10-29T04:06:18.275Z,40.30
2022-10-29T04:11:19.192Z,37.53
2022-10-29T04:16:19.996Z,34.50
2022-10-29T04:32:05.255Z,35.88
2022-10-29T04:37:07.928Z,31.25
2022-10-29T04:42:08.692Z,31.80
2022-10-29T04:47:09.462Z,33.00
2022-10-29T04:52:11.582Z,35.83
2022-10-29T04:57:12.429Z,32.33
2022-10-29T05:02:13.179Z,30.95
2022-10-29T05:07:15.371Z,30.73
2022-10-29T05:12:16.172Z,36.05
2022-10-29T05:17:17.139Z,36.22
2022-10-29T05:22:19.400Z,38.20
2022-10-29T05:27:20.192Z,33.33
2022-10-29T05:32:21.009Z,40.10
2022-10-29T05:37:25.478Z,40.20
2022-10-29T05:42:26.323Z,36.13
2022-10-29T05:47:27.123Z,34.05
2022-10-29T05:52:29.216Z,36.25
2022-10-29T05:57:30.380Z,36.20
2022-10-29T06:02:31.369Z,33.42
2022-10-29T06:07:33.656Z,37.83
2022-10-29T06:12:35.093Z,40.40
2022-10-29T06:17:35.947Z,38.42
2022-10-29T06:22:38.244Z,34.25
2022-10-29T06:27:39.142Z,33.72
2022-10-29T06:32:39.935Z,38.60
2022-10-29T06:37:42.069Z,37.42
2022-10-29T06:42:42.876Z,35.15
2022-10-29T06:47:45.191Z,36.25
2022-10-29T06:52:55.413Z,34.08
2022-10-29T06:58:00.504Z,35.40
2022-10-29T07:03:01.425Z,40.00
2022-10-29T07:08:06.236Z,36.60
2022-10-29T07:13:07.017Z,33.60
2022-10-29T07:18:10.590Z,28.35
2022-10-29T07:23:13.637Z,34.95
2022-10-29T07:28:16.283Z,33.75
2022-10-29T07:33:17.642Z,43.22
2022-10-29T07:38:19.873Z,32.83
2022-10-29T07:43:21.843Z,36.85
2022-10-29T07:48:23.765Z,36.95
2022-10-29T07:53:26.072Z,36.47
2022-10-29T07:58:27.479Z,32.67
2022-10-29T08:03:28.333Z,27.20
2022-10-29T08:08:30.961Z,28.75
2022-10-29T08:13:32.231Z,33.63
2022-10-29T08:18:33.005Z,40.70
2022-10-29T08:23:35.207Z,27.45
2022-10-29T08:28:36.077Z,29.67
2022-10-29T08:33:37.134Z,29.48
2022-10-29T08:38:40.287Z,31.10
2022-10-29T08:44:16.560Z,23.33
2022-10-29T08:49:20.837Z,29.45
2022-10-29T08:54:31.025Z,26.55
2022-10-29T08:59:36.735Z,21.30
2022-10-29T09:04:39.256Z,25.52
2022-10-29T09:09:45.578Z,27.10
2022-10-29T09:15:04.408Z,22.55
2022-10-29T09:20:24.357Z,21.05
2022-10-29T09:25:31.480Z,23.00
2022-10-29T09:30:32.651Z,20.05
2022-10-29T09:35:40.106Z,18.95
2022-10-29T09:40:43.870Z,23.55
2022-10-29T09:45:49.270Z,21.77
2022-10-29T09:51:00.796Z,21.17
2022-10-29T09:56:03.204Z,22.52
2022-10-29T10:01:04.048Z,19.77
2022-10-29T10:06:07.266Z,21.58
2022-10-29T10:11:19.644Z,26.75
2022-10-29T10:16:25.152Z,19.73
2022-10-29T10:21:27.620Z,22.73
2022-10-29T10:26:32.621Z,22.00
2022-10-29T10:31:33.574Z,21.95
2022-10-29T10:36:39.655Z,19.20
2022-10-29T10:41:44.286Z,28.30
2022-10-29T10:46:46.273Z,22.42
2022-10-29T10:51:51.712Z,22.75
2022-10-29T10:57:00.327Z,22.63
2022-10-29T11:02:03.076Z,17.58
2022-10-29T11:07:07.292Z,19.80
2022-10-29T11:12:14.748Z,17.10
2022-10-29T11:17:27.984Z,20.23
2022-10-29T11:22:34.861Z,16.90
2022-10-29T11:27:46.353Z,19.88
2022-10-29T11:32:57.851Z,22.05
2022-10-29T11:38:04.163Z,19.92
2022-10-29T11:43:12.058Z,18.88
2022-10-29T11:48:22.063Z,22.40
2022-10-29T11:53:34.160Z,20.92
2022-10-29T11:58:46.075Z,26.75
2022-10-29T12:04:14.937Z,20.27
2022-10-29T12:09:43.205Z,23.23
2022-10-29T12:14:50.096Z,24.08
2022-10-29T12:19:59.295Z,22.77
2022-10-29T12:25:15.192Z,24.30
2022-10-29T12:30:20.030Z,26.13
2022-10-29T12:35:28.722Z,28.08
2022-10-29T12:40:34.365Z,28.60
2022-10-29T12:45:59.585Z,23.23
2022-10-29T12:51:10.879Z,25.35
2022-10-29T12:56:16.398Z,25.00
2022-10-29T13:02:10.352Z,30.73
2022-10-29T13:07:24.604Z,30.92
2022-10-29T13:12:57.812Z,24.40
2022-10-29T13:18:05.806Z,26.23
2022-10-29T13:23:33.008Z,27.45
2022-10-29T13:28:52.071Z,23.50
2022-10-29T13:33:54.409Z,21.92
2022-10-29T13:39:07.455Z,23.67
2022-10-29T13:44:12.528Z,25.75
2022-10-29T13:49:19.205Z,29.25
2022-10-29T13:54:32.029Z,29.15
2022-10-29T13:59:40.935Z,28.00
2022-10-29T14:04:47.603Z,25.83
2022-10-29T14:09:52.911Z,28.90
2022-10-29T14:15:01.670Z,25.33
2022-10-29T14:20:03.930Z,35.47
2022-10-29T14:25:28.399Z,28.20
2022-10-29T14:30:29.354Z,34.97
2022-10-29T14:35:31.661Z,30.42
2022-10-29T14:40:35.751Z,29.23
2022-10-29T14:45:36.719Z,31.17
2022-10-29T14:50:39.142Z,31.70
2022-10-29T14:55:46.367Z,27.33
2022-10-29T15:00:55.183Z,29.00
2022-10-29T15:06:14.594Z,30.90
2022-10-29T15:11:36.747Z,32.30
2022-10-29T15:16:39.877Z,27.80
2022-10-29T15:21:45.716Z,25.73
2022-10-29T15:26:50.432Z,26.38
2022-10-29T15:31:53.630Z,27.35
2022-10-29T15:36:57.712Z,27.63
2022-10-29T15:42:00.827Z,37.05
2022-10-29T15:47:03.255Z,26.55
2022-10-29T15:52:05.734Z,26.48
2022-10-29T15:57:07.006Z,36.40
2022-10-29T16:02:11.963Z,29.48
2022-10-29T16:07:15.056Z,34.42
2022-10-29T16:12:16.022Z,30.40
2022-10-29T16:17:18.494Z,35.45
2022-10-29T16:22:29.547Z,29.75
2022-10-29T16:27:30.368Z,32.45
2022-10-29T16:32:31.372Z,31.10
2022-10-29T16:37:33.502Z,33.25
2022-10-29T16:42:36.296Z,29.73
2022-10-29T16:47:37.173Z,38.83
2022-10-29T16:52:39.383Z,34.08
2022-10-29T16:57:40.685Z,37.03
2022-10-29T17:02:44.567Z,34.55
2022-10-29T17:07:46.798Z,34.03
2022-10-29T17:12:48.368Z,38.15
2022-10-29T17:17:49.161Z,38.05
2022-10-29T17:22:51.383Z,44.15
2022-10-29T17:27:52.189Z,38.10
2022-10-29T17:32:53.000Z,38.38
2022-10-29T17:37:55.220Z,37.03
2022-10-29T17:42:56.321Z,42.95
2022-10-29T17:47:58.362Z,36.75
2022-10-29T17:53:00.742Z,35.80
2022-10-29T17:58:01.596Z,36.88
2022-10-29T18:03:02.577Z,32.92
2022-10-29T18:08:04.963Z,41.67
2022-10-29T18:13:05.764Z,41.67
2022-10-29T18:18:06.650Z,49.25
2022-10-29T18:23:10.932Z,42.75
2022-10-29T18:28:11.839Z,48.28
2022-10-29T18:33:12.730Z,46.25
2022-10-29T18:38:15.075Z,45.58
2022-10-29T18:43:15.844Z,41.95
2022-10-29T18:48:16.760Z,42.28
2022-10-29T18:53:19.602Z,45.58
2022-10-29T18:58:21.186Z,43.90
2022-10-29T19:03:22.216Z,46.00
2022-10-29T19:08:24.470Z,43.58
2022-10-29T19:13:25.471Z,46.88
2022-10-29T19:18:26.288Z,41.97
2022-10-29T19:23:28.413Z,51.40
2022-10-29T19:28:30.559Z,42.40
2022-10-29T19:33:31.381Z,44.65
2022-10-29T19:38:33.874Z,45.75
2022-10-29T19:43:34.699Z,46.30
2022-10-29T19:48:35.822Z,44.17
2022-10-29T19:53:41.636Z,44.47
2022-10-29T19:58:43.065Z,43.75
2022-10-29T20:03:44.425Z,42.63
2022-10-29T20:08:46.822Z,54.10
2022-10-29T20:13:47.588Z,50.10
2022-10-29T20:18:49.759Z,47.45
2022-10-29T20:23:51.896Z,52.03
2022-10-29T20:28:52.736Z,46.45
2022-10-29T20:33:55.161Z,52.22
2022-10-29T20:38:57.681Z,49.05
2022-10-29T20:44:01.126Z,46.13
2022-10-29T20:49:02.014Z,46.97
2022-10-29T20:54:04.317Z,46.03
2022-10-29T20:59:05.105Z,46.15
2022-10-29T21:04:06.093Z,53.92
2022-10-29T21:09:08.239Z,47.50
2022-10-29T21:14:09.028Z,49.28
2022-10-29T21:19:09.855Z,46.22
2022-10-29T21:24:12.096Z,54.10
2022-10-29T21:29:12.924Z,48.35
2022-10-29T21:34:13.807Z,41.35
2022-10-29T21:39:15.964Z,54.35
2022-10-29T21:44:16.812Z,55.20
2022-10-29T21:49:17.605Z,47.92
2022-10-29T21:54:21.873Z,52.10
2022-10-29T21:59:25.280Z,51.45
2022-10-29T22:04:26.150Z,47.97
2022-10-29T22:09:28.316Z,45.58
2022-10-29T22:14:29.168Z,51.17
2022-10-29T22:19:29.930Z,50.50
2022-10-29T22:24:32.195Z,48.95
2022-10-29T22:29:32.993Z,52.53
2022-10-29T22:34:33.767Z,46.08
2022-10-29T22:39:35.912Z,50.33
2022-10-29T22:44:36.675Z,48.47
2022-10-29T22:49:37.431Z,44.90
2022-10-29T22:54:39.593Z,44.97
2022-10-29T22:59:40.360Z,52.10
2022-10-29T23:04:41.209Z,50.03
2022-10-29T23:09:43.339Z,47.53
2022-10-29T23:14:44.101Z,51.33
2022-10-29T23:19:44.894Z,51.25
2022-10-29T23:24:47.033Z,50.83
2022-10-29T23:29:47.848Z,48.83
2022-10-29T23:34:49.952Z,54.53
2022-10-29T23:39:52.075Z,47.33
2022-10-29T23:44:52.911Z,42.83
2022-10-29T23:49:53.697Z,44.47
2022-10-29T23:54:55.814Z,40.67
2022-10-29T23:59:56.572Z,44.08
